sensor_id;sensor_type;location;lat;lon;timestamp;pressure;altitude;pressure_sealevel;temperature
19040;BMP180;9652;49.014;12.052;2024-01-30T00:01:19;99319.00;;;3.30
19040;BMP180;9652;49.014;12.052;2024-01-30T00:03:46;99312.00;;;3.30
19040;BMP180;9652;49.014;12.052;2024-01-30T00:06:13;99310.00;;;3.30
19040;BMP180;9652;49.014;12.052;2024-01-30T00:08:40;99317.00;;;3.30
19040;BMP180;9652;49.014;12.052;2024-01-30T00:11:07;99313.00;;;3.30
19040;BMP180;9652;49.014;12.052;2024-01-30T00:13:34;99313.00;;;3.30
19040;BMP180;9652;49.014;12.052;2024-01-30T00:16:01;99322.00;;;3.30
19040;BMP180;9652;49.014;12.052;2024-01-30T00:18:31;99318.00;;;3.30
19040;BMP180;9652;49.014;12.052;2024-01-30T00:20:58;99321.00;;;3.30
19040;BMP180;9652;49.014;12.052;2024-01-30T00:23:25;99305.00;;;3.30
19040;BMP180;9652;49.014;12.052;2024-01-30T00:25:52;99350.00;;;3.20
19040;BMP180;9652;49.014;12.052;2024-01-30T00:28:19;99316.00;;;3.20
19040;BMP180;9652;49.014;12.052;2024-01-30T00:30:46;99321.00;;;3.20
19040;BMP180;9652;49.014;12.052;2024-01-30T00:33:13;99320.00;;;3.20
19040;BMP180;9652;49.014;12.052;2024-01-30T00:35:42;99321.00;;;3.10
19040;BMP180;9652;49.014;12.052;2024-01-30T00:38:09;99322.00;;;3.10
19040;BMP180;9652;49.014;12.052;2024-01-30T00:40:36;99317.00;;;3.10
19040;BMP180;9652;49.014;12.052;2024-01-30T00:43:03;99323.00;;;3.10
19040;BMP180;9652;49.014;12.052;2024-01-30T00:45:31;99305.00;;;3.10
19040;BMP180;9652;49.014;12.052;2024-01-30T00:47:58;99317.00;;;3.10
19040;BMP180;9652;49.014;12.052;2024-01-30T00:50:25;99319.00;;;3.10
19040;BMP180;9652;49.014;12.052;2024-01-30T00:52:53;99281.00;;;3.10
19040;BMP180;9652;49.014;12.052;2024-01-30T00:55:21;99305.00;;;3.10
19040;BMP180;9652;49.014;12.052;2024-01-30T00:57:48;99313.00;;;3.10
19040;BMP180;9652;49.014;12.052;2024-01-30T01:00:15;99323.00;;;3.10
19040;BMP180;9652;49.014;12.052;2024-01-30T01:02:43;99220.00;;;3.00
19040;BMP180;9652;49.014;12.052;2024-01-30T01:05:10;99314.00;;;3.00
19040;BMP180;9652;49.014;12.052;2024-01-30T01:07:37;99318.00;;;3.00
19040;BMP180;9652;49.014;12.052;2024-01-30T01:10:07;99304.00;;;3.00
19040;BMP180;9652;49.014;12.052;2024-01-30T01:12:35;99313.00;;;3.00
19040;BMP180;9652;49.014;12.052;2024-01-30T01:15:02;99311.00;;;3.00
19040;BMP180;9652;49.014;12.052;2024-01-30T01:17:29;99300.00;;;3.00
19040;BMP180;9652;49.014;12.052;2024-01-30T01:19:56;99310.00;;;3.00
19040;BMP180;9652;49.014;12.052;2024-01-30T01:22:23;99312.00;;;3.00
19040;BMP180;9652;49.014;12.052;2024-01-30T01:24:51;99310.00;;;2.90
19040;BMP180;9652;49.014;12.052;2024-01-30T01:27:19;99311.00;;;2.90
19040;BMP180;9652;49.014;12.052;2024-01-30T01:29:47;99307.00;;;2.90
19040;BMP180;9652;49.014;12.052;2024-01-30T01:32:14;99309.00;;;2.90
19040;BMP180;9652;49.014;12.052;2024-01-30T01:34:41;99315.00;;;2.90
19040;BMP180;9652;49.014;12.052;2024-01-30T01:37:08;99326.00;;;2.90
19040;BMP180;9652;49.014;12.052;2024-01-30T01:39:35;99321.00;;;2.80
19040;BMP180;9652;49.014;12.052;2024-01-30T01:42:03;99313.00;;;2.90
19040;BMP180;9652;49.014;12.052;2024-01-30T01:44:32;99323.00;;;2.90
19040;BMP180;9652;49.014;12.052;2024-01-30T01:46:59;99314.00;;;2.90
19040;BMP180;9652;49.014;12.052;2024-01-30T01:49:28;99306.00;;;2.80
19040;BMP180;9652;49.014;12.052;2024-01-30T01:51:56;99291.00;;;2.90
19040;BMP180;9652;49.014;12.052;2024-01-30T01:54:26;99278.00;;;2.90
19040;BMP180;9652;49.014;12.052;2024-01-30T01:56:54;99293.00;;;2.90
19040;BMP180;9652;49.014;12.052;2024-01-30T01:59:23;99298.00;;;2.90
19040;BMP180;9652;49.014;12.052;2024-01-30T02:01:55;99285.00;;;2.80
19040;BMP180;9652;49.014;12.052;2024-01-30T02:04:22;99289.00;;;2.80
19040;BMP180;9652;49.014;12.052;2024-01-30T02:06:50;99288.00;;;2.80
19040;BMP180;9652;49.014;12.052;2024-01-30T02:09:17;99304.00;;;2.80
19040;BMP180;9652;49.014;12.052;2024-01-30T02:11:44;99299.00;;;2.80
19040;BMP180;9652;49.014;12.052;2024-01-30T02:14:11;99297.00;;;2.80
19040;BMP180;9652;49.014;12.052;2024-01-30T02:16:38;99292.00;;;2.70
19040;BMP180;9652;49.014;12.052;2024-01-30T02:19:08;99289.00;;;2.70
19040;BMP180;9652;49.014;12.052;2024-01-30T02:21:36;99309.00;;;2.70
19040;BMP180;9652;49.014;12.052;2024-01-30T02:24:05;99296.00;;;2.70
19040;BMP180;9652;49.014;12.052;2024-01-30T02:26:32;99297.00;;;2.70
19040;BMP180;9652;49.014;12.052;2024-01-30T02:28:59;99296.00;;;2.70
19040;BMP180;9652;49.014;12.052;2024-01-30T02:31:26;99295.00;;;2.70
19040;BMP180;9652;49.014;12.052;2024-01-30T02:33:53;99305.00;;;2.70
19040;BMP180;9652;49.014;12.052;2024-01-30T02:36:20;99294.00;;;2.70
19040;BMP180;9652;49.014;12.052;2024-01-30T02:38:49;99283.00;;;2.70
19040;BMP180;9652;49.014;12.052;2024-01-30T02:41:16;99292.00;;;2.70
19040;BMP180;9652;49.014;12.052;2024-01-30T02:43:43;99296.00;;;2.70
19040;BMP180;9652;49.014;12.052;2024-01-30T02:46:10;99274.00;;;2.60
19040;BMP180;9652;49.014;12.052;2024-01-30T02:48:37;99292.00;;;2.60
19040;BMP180;9652;49.014;12.052;2024-01-30T02:51:05;99291.00;;;2.60
19040;BMP180;9652;49.014;12.052;2024-01-30T02:53:32;99293.00;;;2.60
19040;BMP180;9652;49.014;12.052;2024-01-30T02:56:02;99279.00;;;2.50
19040;BMP180;9652;49.014;12.052;2024-01-30T02:58:29;99280.00;;;2.50
19040;BMP180;9652;49.014;12.052;2024-01-30T03:00:56;99280.00;;;2.50
19040;BMP180;9652;49.014;12.052;2024-01-30T03:03:23;99287.00;;;2.50
19040;BMP180;9652;49.014;12.052;2024-01-30T03:05:50;99283.00;;;2.40
19040;BMP180;9652;49.014;12.052;2024-01-30T03:08:17;99295.00;;;2.50
19040;BMP180;9652;49.014;12.052;2024-01-30T03:10:44;99297.00;;;2.50
19040;BMP180;9652;49.014;12.052;2024-01-30T03:13:12;99292.00;;;2.50
19040;BMP180;9652;49.014;12.052;2024-01-30T03:15:39;99293.00;;;2.50
19040;BMP180;9652;49.014;12.052;2024-01-30T03:18:07;99290.00;;;2.40
19040;BMP180;9652;49.014;12.052;2024-01-30T03:20:34;99279.00;;;2.40
19040;BMP180;9652;49.014;12.052;2024-01-30T03:23:01;99296.00;;;2.40
19040;BMP180;9652;49.014;12.052;2024-01-30T03:25:28;99306.00;;;2.40
19040;BMP180;9652;49.014;12.052;2024-01-30T03:27:55;99300.00;;;2.30
19040;BMP180;9652;49.014;12.052;2024-01-30T03:30:24;99304.00;;;2.30
19040;BMP180;9652;49.014;12.052;2024-01-30T03:32:50;99294.00;;;2.30
19040;BMP180;9652;49.014;12.052;2024-01-30T03:35:19;99283.00;;;2.30
19040;BMP180;9652;49.014;12.052;2024-01-30T03:37:46;99304.00;;;2.30
19040;BMP180;9652;49.014;12.052;2024-01-30T03:40:13;99296.00;;;2.30
19040;BMP180;9652;49.014;12.052;2024-01-30T03:42:41;99283.00;;;2.30
19040;BMP180;9652;49.014;12.052;2024-01-30T03:45:09;99290.00;;;2.30
19040;BMP180;9652;49.014;12.052;2024-01-30T03:47:37;99289.00;;;2.30
19040;BMP180;9652;49.014;12.052;2024-01-30T03:50:05;99286.00;;;2.30
19040;BMP180;9652;49.014;12.052;2024-01-30T03:52:32;99285.00;;;2.30
19040;BMP180;9652;49.014;12.052;2024-01-30T03:54:59;99281.00;;;2.30
19040;BMP180;9652;49.014;12.052;2024-01-30T03:57:26;99291.00;;;2.30
19040;BMP180;9652;49.014;12.052;2024-01-30T03:59:53;99294.00;;;2.30
19040;BMP180;9652;49.014;12.052;2024-01-30T04:02:20;99283.00;;;2.30
19040;BMP180;9652;49.014;12.052;2024-01-30T04:04:49;99284.00;;;2.30
19040;BMP180;9652;49.014;12.052;2024-01-30T04:07:16;99285.00;;;2.30
19040;BMP180;9652;49.014;12.052;2024-01-30T04:09:43;99285.00;;;2.30
19040;BMP180;9652;49.014;12.052;2024-01-30T04:12:10;99275.00;;;2.30
19040;BMP180;9652;49.014;12.052;2024-01-30T04:14:40;99290.00;;;2.20
19040;BMP180;9652;49.014;12.052;2024-01-30T04:17:07;99261.00;;;2.30
19040;BMP180;9652;49.014;12.052;2024-01-30T04:19:37;99291.00;;;2.20
19040;BMP180;9652;49.014;12.052;2024-01-30T04:22:06;99291.00;;;2.30
19040;BMP180;9652;49.014;12.052;2024-01-30T04:24:33;99293.00;;;2.20
19040;BMP180;9652;49.014;12.052;2024-01-30T04:27:00;99305.00;;;2.20
19040;BMP180;9652;49.014;12.052;2024-01-30T04:29:27;99304.00;;;2.20
19040;BMP180;9652;49.014;12.052;2024-01-30T04:31:54;99320.00;;;2.20
19040;BMP180;9652;49.014;12.052;2024-01-30T04:34:21;99295.00;;;2.20
19040;BMP180;9652;49.014;12.052;2024-01-30T04:36:48;99292.00;;;2.20
19040;BMP180;9652;49.014;12.052;2024-01-30T04:39:16;99280.00;;;2.20
19040;BMP180;9652;49.014;12.052;2024-01-30T04:41:43;99289.00;;;2.20
19040;BMP180;9652;49.014;12.052;2024-01-30T04:44:10;99304.00;;;2.20
19040;BMP180;9652;49.014;12.052;2024-01-30T04:46:37;99289.00;;;2.20
19040;BMP180;9652;49.014;12.052;2024-01-30T04:49:05;99292.00;;;2.10
19040;BMP180;9652;49.014;12.052;2024-01-30T04:51:33;99279.00;;;2.10
19040;BMP180;9652;49.014;12.052;2024-01-30T04:54:00;99288.00;;;2.10
19040;BMP180;9652;49.014;12.052;2024-01-30T04:56:29;99291.00;;;2.10
19040;BMP180;9652;49.014;12.052;2024-01-30T04:58:57;99283.00;;;2.10
19040;BMP180;9652;49.014;12.052;2024-01-30T05:01:24;99271.00;;;2.10
19040;BMP180;9652;49.014;12.052;2024-01-30T05:03:51;99265.00;;;2.10
19040;BMP180;9652;49.014;12.052;2024-01-30T05:06:24;99203.00;;;2.00
19040;BMP180;9652;49.014;12.052;2024-01-30T05:30:42;99121.00;;;1.90
19040;BMP180;9652;49.014;12.052;2024-01-30T05:33:10;99129.00;;;1.90
19040;BMP180;9652;49.014;12.052;2024-01-30T05:35:38;99245.00;;;1.90
19040;BMP180;9652;49.014;12.052;2024-01-30T05:38:05;99282.00;;;1.80
19040;BMP180;9652;49.014;12.052;2024-01-30T07:08:24;99348.00;;;1.60
19040;BMP180;9652;49.014;12.052;2024-01-30T07:10:57;99203.00;;;1.60
19040;BMP180;9652;49.014;12.052;2024-01-30T07:13:24;99335.00;;;1.70
19040;BMP180;9652;49.014;12.052;2024-01-30T07:15:54;99236.00;;;1.70
19040;BMP180;9652;49.014;12.052;2024-01-30T07:18:27;99054.00;;;1.40
19040;BMP180;9652;49.014;12.052;2024-01-30T07:21:02;99094.00;;;1.80
19040;BMP180;9652;49.014;12.052;2024-01-30T07:23:34;99138.00;;;1.50
19040;BMP180;9652;49.014;12.052;2024-01-30T07:26:06;99450.00;;;1.80
19040;BMP180;9652;49.014;12.052;2024-01-30T07:28:36;99309.00;;;1.90
19040;BMP180;9652;49.014;12.052;2024-01-30T07:31:05;99201.00;;;1.90
19040;BMP180;9652;49.014;12.052;2024-01-30T07:33:33;99270.00;;;1.90
19040;BMP180;9652;49.014;12.052;2024-01-30T07:36:01;99361.00;;;2.00
19040;BMP180;9652;49.014;12.052;2024-01-30T07:46:31;99207.00;;;2.10
19040;BMP180;9652;49.014;12.052;2024-01-30T07:54:50;99244.00;;;1.70
19040;BMP180;9652;49.014;12.052;2024-01-30T07:57:17;99246.00;;;2.40
19040;BMP180;9652;49.014;12.052;2024-01-30T08:18:43;99271.00;;;2.60
19040;BMP180;9652;49.014;12.052;2024-01-30T08:24:31;99284.00;;;2.70
19040;BMP180;9652;49.014;12.052;2024-01-30T08:48:46;99359.00;;;3.80
19040;BMP180;9652;49.014;12.052;2024-01-30T08:51:14;99236.00;;;3.90
19040;BMP180;9652;49.014;12.052;2024-01-30T08:53:41;99273.00;;;4.00
19040;BMP180;9652;49.014;12.052;2024-01-30T08:56:09;99318.00;;;4.10
19040;BMP180;9652;49.014;12.052;2024-01-30T08:58:36;99365.00;;;4.00
19040;BMP180;9652;49.014;12.052;2024-01-30T09:01:03;99395.00;;;4.20
19040;BMP180;9652;49.014;12.052;2024-01-30T09:03:31;99328.00;;;4.30
19040;BMP180;9652;49.014;12.052;2024-01-30T09:06:00;99193.00;;;4.40
19040;BMP180;9652;49.014;12.052;2024-01-30T09:08:27;99240.00;;;4.50
19040;BMP180;9652;49.014;12.052;2024-01-30T09:10:54;99366.00;;;4.50
19040;BMP180;9652;49.014;12.052;2024-01-30T09:13:22;99259.00;;;4.60
19040;BMP180;9652;49.014;12.052;2024-01-30T09:15:49;99350.00;;;4.70
19040;BMP180;9652;49.014;12.052;2024-01-30T09:18:16;99209.00;;;4.80
19040;BMP180;9652;49.014;12.052;2024-01-30T09:20:43;99290.00;;;4.90
19040;BMP180;9652;49.014;12.052;2024-01-30T09:23:12;99188.00;;;5.00
19040;BMP180;9652;49.014;12.052;2024-01-30T09:25:39;99226.00;;;5.00
19040;BMP180;9652;49.014;12.052;2024-01-30T09:28:06;99353.00;;;5.10
19040;BMP180;9652;49.014;12.052;2024-01-30T09:30:34;99353.00;;;5.20
19040;BMP180;9652;49.014;12.052;2024-01-30T10:10:38;99310.00;;;5.80
19040;BMP180;9652;49.014;12.052;2024-01-30T10:31:57;99342.00;;;6.80
19040;BMP180;9652;49.014;12.052;2024-01-30T10:34:24;99204.00;;;6.60
19040;BMP180;9652;49.014;12.052;2024-01-30T10:37:01;99355.00;;;6.90
19040;BMP180;9652;49.014;12.052;2024-01-30T10:39:37;99229.00;;;7.00
19040;BMP180;9652;49.014;12.052;2024-01-30T10:42:07;99307.00;;;7.10
19040;BMP180;9652;49.014;12.052;2024-01-30T10:44:48;99199.00;;;7.20
19040;BMP180;9652;49.014;12.052;2024-01-30T10:47:27;99284.00;;;6.90
19040;BMP180;9652;49.014;12.052;2024-01-30T10:49:55;99271.00;;;7.30
19040;BMP180;9652;49.014;12.052;2024-01-30T11:29:35;99010.00;;;7.90
19040;BMP180;9652;49.014;12.052;2024-01-30T11:32:03;99295.00;;;7.90
19040;BMP180;9652;49.014;12.052;2024-01-30T11:34:32;99287.00;;;8.00
19040;BMP180;9652;49.014;12.052;2024-01-30T11:37:09;99242.00;;;8.00
19040;BMP180;9652;49.014;12.052;2024-01-30T11:39:39;99290.00;;;8.10
19040;BMP180;9652;49.014;12.052;2024-01-30T11:42:08;99275.00;;;8.10
19040;BMP180;9652;49.014;12.052;2024-01-30T11:44:37;99174.00;;;8.20
19040;BMP180;9652;49.014;12.052;2024-01-30T11:47:05;99300.00;;;8.20
19040;BMP180;9652;49.014;12.052;2024-01-30T11:49:34;99287.00;;;8.20
19040;BMP180;9652;49.014;12.052;2024-01-30T11:52:03;99292.00;;;8.30
19040;BMP180;9652;49.014;12.052;2024-01-30T11:54:30;99267.00;;;8.30
19040;BMP180;9652;49.014;12.052;2024-01-30T11:56:57;99272.00;;;8.40
19040;BMP180;9652;49.014;12.052;2024-01-30T11:59:25;99259.00;;;8.50
19040;BMP180;9652;49.014;12.052;2024-01-30T12:01:55;99243.00;;;8.30
19040;BMP180;9652;49.014;12.052;2024-01-30T12:04:23;99110.00;;;8.40
19040;BMP180;9652;49.014;12.052;2024-01-30T12:06:51;99204.00;;;8.70
19040;BMP180;9652;49.014;12.052;2024-01-30T12:09:18;99268.00;;;8.70
19040;BMP180;9652;49.014;12.052;2024-01-30T12:11:52;99069.00;;;8.80
19040;BMP180;9652;49.014;12.052;2024-01-30T12:14:20;99016.00;;;8.90
19040;BMP180;9652;49.014;12.052;2024-01-30T12:16:51;99196.00;;;8.90
19040;BMP180;9652;49.014;12.052;2024-01-30T12:22:11;99254.00;;;9.00
19040;BMP180;9652;49.014;12.052;2024-01-30T12:24:38;99258.00;;;9.00
19040;BMP180;9652;49.014;12.052;2024-01-30T12:27:05;99286.00;;;9.10
19040;BMP180;9652;49.014;12.052;2024-01-30T12:29:32;99232.00;;;9.10
19040;BMP180;9652;49.014;12.052;2024-01-30T12:32:00;99125.00;;;9.20
19040;BMP180;9652;49.014;12.052;2024-01-30T12:34:31;99040.00;;;9.20
19040;BMP180;9652;49.014;12.052;2024-01-30T12:36:59;99147.00;;;9.30
19040;BMP180;9652;49.014;12.052;2024-01-30T12:39:26;99255.00;;;9.30
19040;BMP180;9652;49.014;12.052;2024-01-30T12:41:54;99149.00;;;9.30
19040;BMP180;9652;49.014;12.052;2024-01-30T12:44:21;99250.00;;;9.40
19040;BMP180;9652;49.014;12.052;2024-01-30T12:46:48;99170.00;;;9.20
19040;BMP180;9652;49.014;12.052;2024-01-30T12:49:16;99229.00;;;9.50
19040;BMP180;9652;49.014;12.052;2024-01-30T12:51:44;99129.00;;;9.20
19040;BMP180;9652;49.014;12.052;2024-01-30T12:54:13;99248.00;;;9.50
19040;BMP180;9652;49.014;12.052;2024-01-30T12:56:40;99207.00;;;9.60
19040;BMP180;9652;49.014;12.052;2024-01-30T12:59:07;99079.00;;;9.60
19040;BMP180;9652;49.014;12.052;2024-01-30T13:01:35;99290.00;;;9.10
19040;BMP180;9652;49.014;12.052;2024-01-30T13:04:02;99164.00;;;9.70
19040;BMP180;9652;49.014;12.052;2024-01-30T13:06:30;99236.00;;;9.80
19040;BMP180;9652;49.014;12.052;2024-01-30T13:08:59;99168.00;;;9.80
19040;BMP180;9652;49.014;12.052;2024-01-30T13:11:27;99254.00;;;9.90
19040;BMP180;9652;49.014;12.052;2024-01-30T13:13:54;99193.00;;;9.90
19040;BMP180;9652;49.014;12.052;2024-01-30T13:16:21;99220.00;;;9.90
19040;BMP180;9652;49.014;12.052;2024-01-30T13:18:49;99197.00;;;9.90
19040;BMP180;9652;49.014;12.052;2024-01-30T13:21:16;99215.00;;;10.00
19040;BMP180;9652;49.014;12.052;2024-01-30T13:23:43;99229.00;;;10.00
19040;BMP180;9652;49.014;12.052;2024-01-30T13:26:11;99217.00;;;10.00
19040;BMP180;9652;49.014;12.052;2024-01-30T13:28:39;99217.00;;;10.10
19040;BMP180;9652;49.014;12.052;2024-01-30T13:31:06;99223.00;;;10.10
19040;BMP180;9652;49.014;12.052;2024-01-30T13:33:33;99219.00;;;9.70
19040;BMP180;9652;49.014;12.052;2024-01-30T13:36:01;99231.00;;;9.70
19040;BMP180;9652;49.014;12.052;2024-01-30T13:38:28;99041.00;;;10.20
19040;BMP180;9652;49.014;12.052;2024-01-30T13:40:55;99214.00;;;10.20
19040;BMP180;9652;49.014;12.052;2024-01-30T13:43:23;99112.00;;;10.20
19040;BMP180;9652;49.014;12.052;2024-01-30T13:45:51;99183.00;;;10.20
19040;BMP180;9652;49.014;12.052;2024-01-30T13:48:18;99204.00;;;10.30
19040;BMP180;9652;49.014;12.052;2024-01-30T13:50:45;99161.00;;;10.30
19040;BMP180;9652;49.014;12.052;2024-01-30T13:53:13;99217.00;;;10.30
19040;BMP180;9652;49.014;12.052;2024-01-30T13:55:40;99163.00;;;10.30
19040;BMP180;9652;49.014;12.052;2024-01-30T13:58:08;99213.00;;;10.30
19040;BMP180;9652;49.014;12.052;2024-01-30T14:00:36;99205.00;;;10.30
19040;BMP180;9652;49.014;12.052;2024-01-30T14:03:04;99187.00;;;10.40
19040;BMP180;9652;49.014;12.052;2024-01-30T14:05:31;99201.00;;;10.40
19040;BMP180;9652;49.014;12.052;2024-01-30T14:07:59;99216.00;;;10.40
19040;BMP180;9652;49.014;12.052;2024-01-30T14:10:27;99218.00;;;10.40
19040;BMP180;9652;49.014;12.052;2024-01-30T14:12:54;99190.00;;;10.40
19040;BMP180;9652;49.014;12.052;2024-01-30T14:15:22;99193.00;;;10.40
19040;BMP180;9652;49.014;12.052;2024-01-30T14:17:50;99220.00;;;10.40
19040;BMP180;9652;49.014;12.052;2024-01-30T14:20:18;99225.00;;;10.40
19040;BMP180;9652;49.014;12.052;2024-01-30T14:22:45;99195.00;;;10.40
19040;BMP180;9652;49.014;12.052;2024-01-30T14:25:12;99228.00;;;10.20
19040;BMP180;9652;49.014;12.052;2024-01-30T14:27:39;99223.00;;;10.30
19040;BMP180;9652;49.014;12.052;2024-01-30T14:30:10;99234.00;;;10.30
19040;BMP180;9652;49.014;12.052;2024-01-30T14:32:37;99184.00;;;10.20
19040;BMP180;9652;49.014;12.052;2024-01-30T14:35:10;99236.00;;;9.90
19040;BMP180;9652;49.014;12.052;2024-01-30T14:37:38;99203.00;;;10.10
19040;BMP180;9652;49.014;12.052;2024-01-30T14:40:07;99234.00;;;10.10
19040;BMP180;9652;49.014;12.052;2024-01-30T14:42:34;99206.00;;;10.00
19040;BMP180;9652;49.014;12.052;2024-01-30T14:45:02;99235.00;;;10.00
19040;BMP180;9652;49.014;12.052;2024-01-30T14:47:29;99217.00;;;9.90
19040;BMP180;9652;49.014;12.052;2024-01-30T14:49:57;99218.00;;;9.90
19040;BMP180;9652;49.014;12.052;2024-01-30T14:52:25;99118.00;;;9.90
19040;BMP180;9652;49.014;12.052;2024-01-30T14:54:53;99178.00;;;9.80
19040;BMP180;9652;49.014;12.052;2024-01-30T14:57:20;99174.00;;;9.80
19040;BMP180;9652;49.014;12.052;2024-01-30T14:59:47;99158.00;;;9.80
19040;BMP180;9652;49.014;12.052;2024-01-30T15:02:15;99232.00;;;9.80
19040;BMP180;9652;49.014;12.052;2024-01-30T15:04:42;99238.00;;;9.80
19040;BMP180;9652;49.014;12.052;2024-01-30T15:07:10;99144.00;;;9.80
19040;BMP180;9652;49.014;12.052;2024-01-30T15:09:38;99260.00;;;9.70
19040;BMP180;9652;49.014;12.052;2024-01-30T15:12:06;99174.00;;;9.70
19040;BMP180;9652;49.014;12.052;2024-01-30T15:14:33;99199.00;;;9.70
19040;BMP180;9652;49.014;12.052;2024-01-30T15:17:00;99232.00;;;9.60
19040;BMP180;9652;49.014;12.052;2024-01-30T15:19:27;99260.00;;;9.60
19040;BMP180;9652;49.014;12.052;2024-01-30T15:21:54;99245.00;;;9.60
19040;BMP180;9652;49.014;12.052;2024-01-30T15:24:22;99256.00;;;9.60
19040;BMP180;9652;49.014;12.052;2024-01-30T15:26:51;99267.00;;;8.90
19040;BMP180;9652;49.014;12.052;2024-01-30T15:29:19;99201.00;;;9.50
19040;BMP180;9652;49.014;12.052;2024-01-30T15:31:48;99150.00;;;9.00
19040;BMP180;9652;49.014;12.052;2024-01-30T15:34:15;99042.00;;;9.40
19040;BMP180;9652;49.014;12.052;2024-01-30T15:36:43;99227.00;;;9.40
19040;BMP180;9652;49.014;12.052;2024-01-30T15:39:10;99197.00;;;9.40
19040;BMP180;9652;49.014;12.052;2024-01-30T15:41:37;99147.00;;;9.30
19040;BMP180;9652;49.014;12.052;2024-01-30T15:44:06;99009.00;;;9.30
19040;BMP180;9652;49.014;12.052;2024-01-30T15:46:33;99256.00;;;9.30
19040;BMP180;9652;49.014;12.052;2024-01-30T15:49:00;99205.00;;;9.20
19040;BMP180;9652;49.014;12.052;2024-01-30T15:51:30;99261.00;;;9.20
19040;BMP180;9652;49.014;12.052;2024-01-30T15:53:57;99290.00;;;8.70
19040;BMP180;9652;49.014;12.052;2024-01-30T15:56:24;99163.00;;;9.10
19040;BMP180;9652;49.014;12.052;2024-01-30T15:58:51;99182.00;;;9.10
19040;BMP180;9652;49.014;12.052;2024-01-30T16:01:20;99168.00;;;9.00
19040;BMP180;9652;49.014;12.052;2024-01-30T16:03:47;99153.00;;;9.00
19040;BMP180;9652;49.014;12.052;2024-01-30T16:06:14;99269.00;;;9.00
19040;BMP180;9652;49.014;12.052;2024-01-30T16:08:42;99268.00;;;8.90
19040;BMP180;9652;49.014;12.052;2024-01-30T16:11:09;99106.00;;;8.80
19040;BMP180;9652;49.014;12.052;2024-01-30T16:13:36;99270.00;;;8.80
19040;BMP180;9652;49.014;12.052;2024-01-30T16:16:05;99119.00;;;8.80
19040;BMP180;9652;49.014;12.052;2024-01-30T16:18:35;99198.00;;;8.70
